sensor_id;sensor_type;location;lat;lon;timestamp;P1;durP1;ratioP1;P2;durP2;ratioP2
35418;SDS011;21525;41.240;16.500;2023-03-13T00:02:02;11.10;;;4.30;;
35418;SDS011;21525;41.240;16.500;2023-03-13T00:04:27;8.70;;;3.40;;
35418;SDS011;21525;41.240;16.500;2023-03-13T00:06:53;8.55;;;3.90;;
35418;SDS011;21525;41.240;16.500;2023-03-13T00:09:19;8.60;;;3.55;;
35418;SDS011;21525;41.240;16.500;2023-03-13T00:11:45;8.95;;;3.60;;
35418;SDS011;21525;41.240;16.500;2023-03-13T00:14:11;7.82;;;3.80;;
35418;SDS011;21525;41.240;16.500;2023-03-13T00:16:37;9.35;;;3.30;;
35418;SDS011;21525;41.240;16.500;2023-03-13T00:19:04;6.70;;;3.83;;
35418;SDS011;21525;41.240;16.500;2023-03-13T00:21:31;8.13;;;3.45;;
35418;SDS011;21525;41.240;16.500;2023-03-13T00:23:58;11.13;;;3.70;;
35418;SDS011;21525;41.240;16.500;2023-03-13T00:26:25;12.07;;;3.35;;
35418;SDS011;21525;41.240;16.500;2023-03-13T00:28:52;11.93;;;3.70;;
35418;SDS011;21525;41.240;16.500;2023-03-13T00:33:49;6.88;;;3.63;;
35418;SDS011;21525;41.240;16.500;2023-03-13T00:36:18;6.68;;;3.10;;
35418;SDS011;21525;41.240;16.500;2023-03-13T00:38:46;9.63;;;3.75;;
35418;SDS011;21525;41.240;16.500;2023-03-13T00:41:19;12.98;;;3.33;;
35418;SDS011;21525;41.240;16.500;2023-03-13T00:43:47;7.25;;;3.08;;
35418;SDS011;21525;41.240;16.500;2023-03-13T00:46:13;8.40;;;3.30;;
35418;SDS011;21525;41.240;16.500;2023-03-13T00:48:41;7.60;;;3.42;;
35418;SDS011;21525;41.240;16.500;2023-03-13T00:51:07;7.30;;;3.30;;
35418;SDS011;21525;41.240;16.500;2023-03-13T00:53:33;9.85;;;3.42;;
35418;SDS011;21525;41.240;16.500;2023-03-13T00:56:04;10.48;;;3.33;;
35418;SDS011;21525;41.240;16.500;2023-03-13T00:58:41;8.73;;;3.83;;
35418;SDS011;21525;41.240;16.500;2023-03-13T01:01:12;6.97;;;2.88;;
35418;SDS011;21525;41.240;16.500;2023-03-13T01:03:39;9.65;;;3.20;;
35418;SDS011;21525;41.240;16.500;2023-03-13T01:06:07;9.70;;;3.25;;
35418;SDS011;21525;41.240;16.500;2023-03-13T01:08:35;10.15;;;3.28;;
35418;SDS011;21525;41.240;16.500;2023-03-13T01:11:02;7.95;;;3.13;;
35418;SDS011;21525;41.240;16.500;2023-03-13T01:13:36;9.15;;;2.75;;
35418;SDS011;21525;41.240;16.500;2023-03-13T01:18:28;4.68;;;2.67;;
35418;SDS011;21525;41.240;16.500;2023-03-13T01:20:54;8.02;;;2.80;;
35418;SDS011;21525;41.240;16.500;2023-03-13T01:23:20;7.15;;;2.72;;
35418;SDS011;21525;41.240;16.500;2023-03-13T01:25:46;7.55;;;2.90;;
35418;SDS011;21525;41.240;16.500;2023-03-13T01:28:12;9.55;;;3.60;;
35418;SDS011;21525;41.240;16.500;2023-03-13T01:30:38;8.50;;;3.20;;
35418;SDS011;21525;41.240;16.500;2023-03-13T01:33:03;7.60;;;2.65;;
35418;SDS011;21525;41.240;16.500;2023-03-13T01:35:29;10.15;;;3.30;;
35418;SDS011;21525;41.240;16.500;2023-03-13T01:37:55;8.13;;;2.67;;
35418;SDS011;21525;41.240;16.500;2023-03-13T01:40:21;10.07;;;3.55;;
35418;SDS011;21525;41.240;16.500;2023-03-13T01:42:50;9.20;;;3.30;;
35418;SDS011;21525;41.240;16.500;2023-03-13T01:48:16;7.30;;;2.50;;
35418;SDS011;21525;41.240;16.500;2023-03-13T01:50:45;7.30;;;2.70;;
35418;SDS011;21525;41.240;16.500;2023-03-13T01:53:23;7.30;;;2.72;;
35418;SDS011;21525;41.240;16.500;2023-03-13T01:55:50;5.88;;;2.42;;
35418;SDS011;21525;41.240;16.500;2023-03-13T01:58:18;9.53;;;3.00;;
35418;SDS011;21525;41.240;16.500;2023-03-13T02:00:44;6.60;;;2.65;;
35418;SDS011;21525;41.240;16.500;2023-03-13T02:03:12;5.65;;;3.03;;
35418;SDS011;21525;41.240;16.500;2023-03-13T02:05:42;6.93;;;2.30;;
35418;SDS011;21525;41.240;16.500;2023-03-13T02:14:01;8.10;;;3.03;;
35418;SDS011;21525;41.240;16.500;2023-03-13T02:16:29;13.73;;;3.10;;
35418;SDS011;21525;41.240;16.500;2023-03-13T02:18:57;7.68;;;3.17;;
35418;SDS011;21525;41.240;16.500;2023-03-13T02:26:52;8.55;;;2.70;;
35418;SDS011;21525;41.240;16.500;2023-03-13T02:29:18;7.05;;;2.92;;
35418;SDS011;21525;41.240;16.500;2023-03-13T02:31:45;9.27;;;2.88;;
35418;SDS011;21525;41.240;16.500;2023-03-13T02:34:16;13.10;;;3.47;;
35418;SDS011;21525;41.240;16.500;2023-03-13T02:36:46;10.10;;;3.05;;
35418;SDS011;21525;41.240;16.500;2023-03-13T02:39:13;6.03;;;2.65;;
35418;SDS011;21525;41.240;16.500;2023-03-13T02:41:42;6.90;;;2.67;;
35418;SDS011;21525;41.240;16.500;2023-03-13T02:44:11;15.60;;;3.38;;
35418;SDS011;21525;41.240;16.500;2023-03-13T02:46:47;6.70;;;2.72;;
35418;SDS011;21525;41.240;16.500;2023-03-13T02:54:21;7.88;;;2.47;;
35418;SDS011;21525;41.240;16.500;2023-03-13T02:56:53;6.78;;;3.00;;
35418;SDS011;21525;41.240;16.500;2023-03-13T02:59:22;8.35;;;3.10;;
35418;SDS011;21525;41.240;16.500;2023-03-13T03:01:49;7.88;;;3.03;;
35418;SDS011;21525;41.240;16.500;2023-03-13T03:04:21;6.25;;;3.03;;
35418;SDS011;21525;41.240;16.500;2023-03-13T03:06:52;8.35;;;3.17;;
35418;SDS011;21525;41.240;16.500;2023-03-13T03:09:19;7.47;;;2.83;;
35418;SDS011;21525;41.240;16.500;2023-03-13T03:11:48;7.70;;;3.30;;
35418;SDS011;21525;41.240;16.500;2023-03-13T03:14:14;6.85;;;2.60;;
35418;SDS011;21525;41.240;16.500;2023-03-13T03:16:44;5.93;;;2.55;;
35418;SDS011;21525;41.240;16.500;2023-03-13T03:19:10;7.75;;;2.67;;
35418;SDS011;21525;41.240;16.500;2023-03-13T03:21:36;10.10;;;3.22;;
35418;SDS011;21525;41.240;16.500;2023-03-13T03:24:02;9.93;;;2.90;;
35418;SDS011;21525;41.240;16.500;2023-03-13T03:26:29;7.55;;;2.92;;
35418;SDS011;21525;41.240;16.500;2023-03-13T03:28:54;6.95;;;2.72;;
35418;SDS011;21525;41.240;16.500;2023-03-13T03:31:20;5.53;;;2.83;;
35418;SDS011;21525;41.240;16.500;2023-03-13T03:33:46;6.55;;;2.72;;
35418;SDS011;21525;41.240;16.500;2023-03-13T03:36:15;6.40;;;3.10;;
35418;SDS011;21525;41.240;16.500;2023-03-13T03:38:44;7.57;;;2.70;;
35418;SDS011;21525;41.240;16.500;2023-03-13T03:43:39;6.75;;;2.78;;
35418;SDS011;21525;41.240;16.500;2023-03-13T03:46:07;6.67;;;3.03;;
35418;SDS011;21525;41.240;16.500;2023-03-13T03:48:34;5.80;;;2.20;;
35418;SDS011;21525;41.240;16.500;2023-03-13T03:53:30;8.98;;;2.45;;
35418;SDS011;21525;41.240;16.500;2023-03-13T03:55:57;6.20;;;2.15;;
35418;SDS011;21525;41.240;16.500;2023-03-13T03:58:23;5.57;;;2.17;;
35418;SDS011;21525;41.240;16.500;2023-03-13T04:00:59;3.92;;;1.67;;
35418;SDS011;21525;41.240;16.500;2023-03-13T04:03:25;4.90;;;2.00;;
35418;SDS011;21525;41.240;16.500;2023-03-13T04:05:52;3.20;;;1.77;;
35418;SDS011;21525;41.240;16.500;2023-03-13T04:08:18;5.25;;;1.80;;
35418;SDS011;21525;41.240;16.500;2023-03-13T04:10:44;3.78;;;1.70;;
35418;SDS011;21525;41.240;16.500;2023-03-13T04:13:11;5.53;;;1.80;;
35418;SDS011;21525;41.240;16.500;2023-03-13T04:15:37;5.43;;;2.42;;
35418;SDS011;21525;41.240;16.500;2023-03-13T04:18:04;5.82;;;1.75;;
35418;SDS011;21525;41.240;16.500;2023-03-13T04:20:30;3.42;;;1.88;;
35418;SDS011;21525;41.240;16.500;2023-03-13T04:22:56;5.00;;;1.85;;
35418;SDS011;21525;41.240;16.500;2023-03-13T04:25:22;4.80;;;2.10;;
35418;SDS011;21525;41.240;16.500;2023-03-13T04:27:50;6.80;;;2.00;;
35418;SDS011;21525;41.240;16.500;2023-03-13T04:30:18;4.28;;;1.70;;
35418;SDS011;21525;41.240;16.500;2023-03-13T04:33:19;7.78;;;2.25;;
35418;SDS011;21525;41.240;16.500;2023-03-13T04:36:01;8.13;;;1.80;;
35418;SDS011;21525;41.240;16.500;2023-03-13T04:38:43;9.10;;;2.67;;
35418;SDS011;21525;41.240;16.500;2023-03-13T04:41:33;5.97;;;2.15;;
35418;SDS011;21525;41.240;16.500;2023-03-13T04:44:22;6.40;;;2.33;;
35418;SDS011;21525;41.240;16.500;2023-03-13T04:47:07;9.32;;;2.60;;
35418;SDS011;21525;41.240;16.500;2023-03-13T04:49:46;7.47;;;2.08;;
35418;SDS011;21525;41.240;16.500;2023-03-13T04:52:26;7.85;;;2.13;;
35418;SDS011;21525;41.240;16.500;2023-03-13T04:55:07;8.63;;;2.10;;
35418;SDS011;21525;41.240;16.500;2023-03-13T04:57:54;7.70;;;1.80;;
35418;SDS011;21525;41.240;16.500;2023-03-13T05:00:44;10.60;;;2.40;;
35418;SDS011;21525;41.240;16.500;2023-03-13T05:03:26;8.20;;;2.72;;
35418;SDS011;21525;41.240;16.500;2023-03-13T05:06:05;5.03;;;2.75;;
35418;SDS011;21525;41.240;16.500;2023-03-13T05:08:50;11.63;;;4.95;;
35418;SDS011;21525;41.240;16.500;2023-03-13T05:11:15;12.73;;;4.88;;
35418;SDS011;21525;41.240;16.500;2023-03-13T05:14:03;9.30;;;3.63;;
35418;SDS011;21525;41.240;16.500;2023-03-13T05:16:34;11.40;;;3.88;;
35418;SDS011;21525;41.240;16.500;2023-03-13T05:19:19;14.05;;;3.85;;
35418;SDS011;21525;41.240;16.500;2023-03-13T05:22:00;7.82;;;3.10;;
35418;SDS011;21525;41.240;16.500;2023-03-13T05:24:51;8.48;;;3.78;;
35418;SDS011;21525;41.240;16.500;2023-03-13T05:27:51;12.43;;;4.07;;
35418;SDS011;21525;41.240;16.500;2023-03-13T05:30:35;11.32;;;4.35;;
35418;SDS011;21525;41.240;16.500;2023-03-13T05:33:21;10.02;;;4.93;;
35418;SDS011;21525;41.240;16.500;2023-03-13T05:36:08;16.27;;;6.10;;
35418;SDS011;21525;41.240;16.500;2023-03-13T05:38:46;16.48;;;6.55;;
35418;SDS011;21525;41.240;16.500;2023-03-13T05:41:19;15.63;;;7.00;;
35418;SDS011;21525;41.240;16.500;2023-03-13T05:44:17;20.63;;;9.45;;
35418;SDS011;21525;41.240;16.500;2023-03-13T05:47:00;28.17;;;10.68;;
35418;SDS011;21525;41.240;16.500;2023-03-13T05:49:40;25.80;;;10.75;;
35418;SDS011;21525;41.240;16.500;2023-03-13T05:52:23;23.15;;;11.07;;
35418;SDS011;21525;41.240;16.500;2023-03-13T05:57:55;21.02;;;9.80;;
35418;SDS011;21525;41.240;16.500;2023-03-13T06:00:41;19.98;;;10.82;;
35418;SDS011;21525;41.240;16.500;2023-03-13T06:03:33;18.50;;;10.13;;
35418;SDS011;21525;41.240;16.500;2023-03-13T06:05:59;17.52;;;10.35;;
35418;SDS011;21525;41.240;16.500;2023-03-13T06:08:33;18.35;;;11.35;;
35418;SDS011;21525;41.240;16.500;2023-03-13T06:11:00;24.70;;;11.30;;
35418;SDS011;21525;41.240;16.500;2023-03-13T06:13:27;20.98;;;11.20;;
35418;SDS011;21525;41.240;16.500;2023-03-13T06:15:55;23.35;;;12.65;;
35418;SDS011;21525;41.240;16.500;2023-03-13T06:18:54;23.33;;;11.95;;
35418;SDS011;21525;41.240;16.500;2023-03-13T06:21:20;24.90;;;14.25;;
35418;SDS011;21525;41.240;16.500;2023-03-13T06:23:45;26.50;;;14.05;;
35418;SDS011;21525;41.240;16.500;2023-03-13T06:26:11;22.02;;;13.75;;
35418;SDS011;21525;41.240;16.500;2023-03-13T06:28:37;17.25;;;12.93;;
35418;SDS011;21525;41.240;16.500;2023-03-13T06:31:03;23.30;;;16.77;;
35418;SDS011;21525;41.240;16.500;2023-03-13T06:33:31;36.90;;;30.55;;
35418;SDS011;21525;41.240;16.500;2023-03-13T06:35:58;74.65;;;56.13;;
35418;SDS011;21525;41.240;16.500;2023-03-13T06:38:25;60.90;;;46.25;;
35418;SDS011;21525;41.240;16.500;2023-03-13T06:40:51;87.88;;;70.32;;
35418;SDS011;21525;41.240;16.500;2023-03-13T06:43:17;89.32;;;64.15;;
35418;SDS011;21525;41.240;16.500;2023-03-13T06:45:43;121.15;;;93.15;;
35418;SDS011;21525;41.240;16.500;2023-03-13T06:48:09;158.15;;;122.40;;
35418;SDS011;21525;41.240;16.500;2023-03-13T06:50:38;102.35;;;82.30;;
35418;SDS011;21525;41.240;16.500;2023-03-13T06:53:04;68.18;;;52.15;;
35418;SDS011;21525;41.240;16.500;2023-03-13T06:55:30;70.50;;;59.95;;
35418;SDS011;21525;41.240;16.500;2023-03-13T06:57:56;61.28;;;53.63;;
35418;SDS011;21525;41.240;16.500;2023-03-13T07:00:22;55.72;;;49.47;;
35418;SDS011;21525;41.240;16.500;2023-03-13T07:02:49;61.70;;;49.47;;
35418;SDS011;21525;41.240;16.500;2023-03-13T07:05:15;44.85;;;36.30;;
35418;SDS011;21525;41.240;16.500;2023-03-13T07:07:41;31.38;;;21.13;;
35418;SDS011;21525;41.240;16.500;2023-03-13T07:10:08;23.52;;;16.25;;
35418;SDS011;21525;41.240;16.500;2023-03-13T07:12:35;33.42;;;18.85;;
35418;SDS011;21525;41.240;16.500;2023-03-13T07:15:02;32.83;;;23.27;;
35418;SDS011;21525;41.240;16.500;2023-03-13T07:17:28;41.65;;;21.85;;
35418;SDS011;21525;41.240;16.500;2023-03-13T07:19:54;41.35;;;18.08;;
35418;SDS011;21525;41.240;16.500;2023-03-13T07:22:20;20.05;;;12.30;;
35418;SDS011;21525;41.240;16.500;2023-03-13T07:24:45;19.45;;;12.57;;
35418;SDS011;21525;41.240;16.500;2023-03-13T07:27:11;14.60;;;9.73;;
35418;SDS011;21525;41.240;16.500;2023-03-13T07:29:38;14.23;;;10.05;;
35418;SDS011;21525;41.240;16.500;2023-03-13T07:32:04;11.77;;;7.07;;
35418;SDS011;21525;41.240;16.500;2023-03-13T07:34:30;10.40;;;6.15;;
35418;SDS011;21525;41.240;16.500;2023-03-13T07:36:56;10.48;;;6.20;;
35418;SDS011;21525;41.240;16.500;2023-03-13T07:39:21;10.57;;;7.03;;
35418;SDS011;21525;41.240;16.500;2023-03-13T07:41:47;10.00;;;5.88;;
35418;SDS011;21525;41.240;16.500;2023-03-13T07:46:41;12.60;;;8.13;;
35418;SDS011;21525;41.240;16.500;2023-03-13T07:49:07;12.20;;;9.63;;
35418;SDS011;21525;41.240;16.500;2023-03-13T07:51:32;12.13;;;8.05;;
35418;SDS011;21525;41.240;16.500;2023-03-13T07:53:58;13.55;;;9.65;;
35418;SDS011;21525;41.240;16.500;2023-03-13T07:56:24;12.63;;;7.22;;
35418;SDS011;21525;41.240;16.500;2023-03-13T07:58:50;17.00;;;7.82;;
35418;SDS011;21525;41.240;16.500;2023-03-13T08:01:23;16.38;;;7.72;;
35418;SDS011;21525;41.240;16.500;2023-03-13T08:03:50;18.88;;;8.02;;
35418;SDS011;21525;41.240;16.500;2023-03-13T08:06:19;16.95;;;6.82;;
35418;SDS011;21525;41.240;16.500;2023-03-13T08:08:48;14.10;;;6.32;;
35418;SDS011;21525;41.240;16.500;2023-03-13T08:11:18;11.77;;;5.78;;
35418;SDS011;21525;41.240;16.500;2023-03-13T08:13:45;79.22;;;47.92;;
35418;SDS011;21525;41.240;16.500;2023-03-13T08:16:13;17.38;;;8.40;;
35418;SDS011;21525;41.240;16.500;2023-03-13T08:18:41;15.48;;;8.20;;
35418;SDS011;21525;41.240;16.500;2023-03-13T08:21:14;9.67;;;5.50;;
35418;SDS011;21525;41.240;16.500;2023-03-13T08:23:42;11.02;;;7.13;;
35418;SDS011;21525;41.240;16.500;2023-03-13T08:26:11;12.07;;;5.80;;
35418;SDS011;21525;41.240;16.500;2023-03-13T08:28:42;10.52;;;5.68;;
35418;SDS011;21525;41.240;16.500;2023-03-13T08:31:13;13.10;;;6.88;;
35418;SDS011;21525;41.240;16.500;2023-03-13T08:33:41;15.60;;;9.82;;
35418;SDS011;21525;41.240;16.500;2023-03-13T08:38:41;12.02;;;8.55;;
35418;SDS011;21525;41.240;16.500;2023-03-13T08:41:11;9.25;;;6.15;;
35418;SDS011;21525;41.240;16.500;2023-03-13T08:43:45;76.55;;;46.03;;
35418;SDS011;21525;41.240;16.500;2023-03-13T08:46:11;70.15;;;42.47;;
35418;SDS011;21525;41.240;16.500;2023-03-13T08:48:38;20.65;;;12.18;;
35418;SDS011;21525;41.240;16.500;2023-03-13T08:51:05;23.00;;;17.08;;
35418;SDS011;21525;41.240;16.500;2023-03-13T08:53:33;7.82;;;4.93;;
35418;SDS011;21525;41.240;16.500;2023-03-13T08:56:00;13.05;;;7.70;;
35418;SDS011;21525;41.240;16.500;2023-03-13T08:58:27;12.40;;;6.78;;
35418;SDS011;21525;41.240;16.500;2023-03-13T09:00:53;19.45;;;12.40;;
35418;SDS011;21525;41.240;16.500;2023-03-13T09:03:19;18.40;;;10.27;;
35418;SDS011;21525;41.240;16.500;2023-03-13T09:05:45;13.65;;;7.53;;
35418;SDS011;21525;41.240;16.500;2023-03-13T09:08:12;10.90;;;5.05;;
35418;SDS011;21525;41.240;16.500;2023-03-13T09:10:39;11.48;;;4.45;;
35418;SDS011;21525;41.240;16.500;2023-03-13T09:13:05;9.40;;;4.30;;
35418;SDS011;21525;41.240;16.500;2023-03-13T09:15:31;9.02;;;4.82;;
35418;SDS011;21525;41.240;16.500;2023-03-13T09:17:56;9.48;;;4.60;;
35418;SDS011;21525;41.240;16.500;2023-03-13T09:20:22;11.68;;;5.97;;
35418;SDS011;21525;41.240;16.500;2023-03-13T09:22:48;14.07;;;5.95;;
35418;SDS011;21525;41.240;16.500;2023-03-13T09:25:14;12.55;;;4.88;;
35418;SDS011;21525;41.240;16.500;2023-03-13T09:27:40;12.18;;;5.15;;
35418;SDS011;21525;41.240;16.500;2023-03-13T09:30:06;9.82;;;4.47;;
35418;SDS011;21525;41.240;16.500;2023-03-13T09:32:32;10.02;;;4.63;;
35418;SDS011;21525;41.240;16.500;2023-03-13T09:34:58;14.65;;;5.45;;
35418;SDS011;21525;41.240;16.500;2023-03-13T09:37:24;13.95;;;4.85;;
35418;SDS011;21525;41.240;16.500;2023-03-13T09:39:50;10.73;;;5.32;;
35418;SDS011;21525;41.240;16.500;2023-03-13T09:42:20;10.20;;;4.38;;
35418;SDS011;21525;41.240;16.500;2023-03-13T09:47:41;12.85;;;4.97;;
35418;SDS011;21525;41.240;16.500;2023-03-13T09:50:17;11.18;;;4.55;;
35418;SDS011;21525;41.240;16.500;2023-03-13T09:52:53;9.98;;;3.92;;
35418;SDS011;21525;41.240;16.500;2023-03-13T09:55:22;9.50;;;3.88;;
35418;SDS011;21525;41.240;16.500;2023-03-13T09:57:55;7.95;;;3.58;;
35418;SDS011;21525;41.240;16.500;2023-03-13T10:00:30;6.53;;;3.17;;
35418;SDS011;21525;41.240;16.500;2023-03-13T10:03:04;7.35;;;3.50;;
35418;SDS011;21525;41.240;16.500;2023-03-13T10:05:32;11.70;;;5.88;;
35418;SDS011;21525;41.240;16.500;2023-03-13T10:08:09;7.35;;;3.10;;
35418;SDS011;21525;41.240;16.500;2023-03-13T10:11:26;9.85;;;3.25;;
35418;SDS011;21525;41.240;16.500;2023-03-13T10:13:56;9.45;;;3.67;;
35418;SDS011;21525;41.240;16.500;2023-03-13T10:16:48;9.02;;;3.65;;
35418;SDS011;21525;41.240;16.500;2023-03-13T10:19:30;7.00;;;3.47;;
35418;SDS011;21525;41.240;16.500;2023-03-13T10:22:03;8.00;;;3.83;;
35418;SDS011;21525;41.240;16.500;2023-03-13T10:27:27;6.68;;;3.20;;
35418;SDS011;21525;41.240;16.500;2023-03-13T10:29:53;8.45;;;2.88;;
35418;SDS011;21525;41.240;16.500;2023-03-13T10:32:19;6.60;;;3.00;;
35418;SDS011;21525;41.240;16.500;2023-03-13T10:34:49;8.40;;;2.47;;
35418;SDS011;21525;41.240;16.500;2023-03-13T10:37:20;6.82;;;2.80;;
35418;SDS011;21525;41.240;16.500;2023-03-13T10:39:48;10.52;;;3.60;;
35418;SDS011;21525;41.240;16.500;2023-03-13T10:42:22;10.30;;;3.15;;
35418;SDS011;21525;41.240;16.500;2023-03-13T10:44:58;10.27;;;4.32;;
35418;SDS011;21525;41.240;16.500;2023-03-13T10:47:26;7.18;;;3.17;;
35418;SDS011;21525;41.240;16.500;2023-03-13T10:49:56;6.50;;;3.00;;
35418;SDS011;21525;41.240;16.500;2023-03-13T11:00:37;7.95;;;2.95;;
35418;SDS011;21525;41.240;16.500;2023-03-13T11:03:04;9.77;;;3.88;;
35418;SDS011;21525;41.240;16.500;2023-03-13T11:05:40;11.38;;;4.75;;
35418;SDS011;21525;41.240;16.500;2023-03-13T11:11:00;9.73;;;4.50;;
35418;SDS011;21525;41.240;16.500;2023-03-13T11:16:15;8.48;;;5.25;;
35418;SDS011;21525;41.240;16.500;2023-03-13T11:19:29;7.95;;;3.20;;
35418;SDS011;21525;41.240;16.500;2023-03-13T11:29:45;8.43;;;3.08;;
35418;SDS011;21525;41.240;16.500;2023-03-13T11:32:41;13.68;;;3.25;;
35418;SDS011;21525;41.240;16.500;2023-03-13T11:38:06;7.43;;;2.65;;
35418;SDS011;21525;41.240;16.500;2023-03-13T11:49:27;5.28;;;2.22;;
35418;SDS011;21525;41.240;16.500;2023-03-13T11:52:17;7.20;;;3.00;;
35418;SDS011;21525;41.240;16.500;2023-03-13T11:57:34;6.10;;;2.75;;
35418;SDS011;21525;41.240;16.500;2023-03-13T12:00:23;5.78;;;2.40;;
35418;SDS011;21525;41.240;16.500;2023-03-13T12:05:58;6.80;;;1.92;;
35418;SDS011;21525;41.240;16.500;2023-03-13T12:13:38;9.07;;;2.60;;
35418;SDS011;21525;41.240;16.500;2023-03-13T12:16:11;4.68;;;2.20;;
35418;SDS011;21525;41.240;16.500;2023-03-13T12:18:48;6.03;;;3.03;;
35418;SDS011;21525;41.240;16.500;2023-03-13T12:21:20;4.05;;;2.70;;
35418;SDS011;21525;41.240;16.500;2023-03-13T12:31:46;5.60;;;2.00;;
35418;SDS011;21525;41.240;16.500;2023-03-13T12:34:26;5.57;;;1.50;;
35418;SDS011;21525;41.240;16.500;2023-03-13T12:39:50;6.80;;;2.47;;
35418;SDS011;21525;41.240;16.500;2023-03-13T12:45:17;3.72;;;2.00;;
35418;SDS011;21525;41.240;16.500;2023-03-13T12:58:50;4.43;;;2.10;;
35418;SDS011;21525;41.240;16.500;2023-03-13T13:03:55;3.08;;;1.27;;
35418;SDS011;21525;41.240;16.500;2023-03-13T13:07:04;6.25;;;1.75;;
35418;SDS011;21525;41.240;16.500;2023-03-13T13:09:32;4.22;;;2.03;;
35418;SDS011;21525;41.240;16.500;2023-03-13T13:19:45;2.55;;;1.33;;
35418;SDS011;21525;41.240;16.500;2023-03-13T13:32:47;4.97;;;1.97;;
35418;SDS011;21525;41.240;16.500;2023-03-13T13:35:22;2.03;;;1.30;;
35418;SDS011;21525;41.240;16.500;2023-03-13T13:37:48;2.92;;;1.00;;
35418;SDS011;21525;41.240;16.500;2023-03-13T13:48:14;4.18;;;1.20;;
35418;SDS011;21525;41.240;16.500;2023-03-13T13:53:42;7.20;;;2.08;;
35418;SDS011;21525;41.240;16.500;2023-03-13T14:01:47;4.72;;;1.50;;
35418;SDS011;21525;41.240;16.500;2023-03-13T14:04:27;4.10;;;2.15;;
35418;SDS011;21525;41.240;16.500;2023-03-13T14:06:56;4.07;;;1.55;;
35418;SDS011;21525;41.240;16.500;2023-03-13T14:18:15;3.65;;;1.52;;
35418;SDS011;21525;41.240;16.500;2023-03-13T14:23:41;4.78;;;2.63;;
35418;SDS011;21525;41.240;16.500;2023-03-13T14:26:16;2.42;;;1.40;;
35418;SDS011;21525;41.240;16.500;2023-03-13T14:31:22;5.15;;;1.92;;
35418;SDS011;21525;41.240;16.500;2023-03-13T14:33:50;2.28;;;1.38;;
35418;SDS011;21525;41.240;16.500;2023-03-13T14:36:17;1.80;;;1.10;;
35418;SDS011;21525;41.240;16.500;2023-03-13T14:38:50;3.10;;;1.20;;
35418;SDS011;21525;41.240;16.500;2023-03-13T14:41:31;4.63;;;1.38;;
35418;SDS011;21525;41.240;16.500;2023-03-13T14:44:05;4.20;;;1.60;;
35418;SDS011;21525;41.240;16.500;2023-03-13T14:46:41;4.07;;;1.50;;
35418;SDS011;21525;41.240;16.500;2023-03-13T14:49:15;3.95;;;1.38;;
35418;SDS011;21525;41.240;16.500;2023-03-13T14:51:43;3.90;;;1.30;;
35418;SDS011;21525;41.240;16.500;2023-03-13T14:54:26;4.57;;;1.50;;
35418;SDS011;21525;41.240;16.500;2023-03-13T14:57:11;3.83;;;1.38;;
35418;SDS011;21525;41.240;16.500;2023-03-13T14:59:40;3.13;;;1.55;;
35418;SDS011;21525;41.240;16.500;2023-03-13T15:02:15;1.80;;;1.17;;
35418;SDS011;21525;41.240;16.500;2023-03-13T15:10:43;2.40;;;1.50;;
35418;SDS011;21525;41.240;16.500;2023-03-13T15:15:42;2.05;;;1.60;;
35418;SDS011;21525;41.240;16.500;2023-03-13T15:18:18;3.03;;;1.42;;
35418;SDS011;21525;41.240;16.500;2023-03-13T15:20:49;3.30;;;1.52;;
35418;SDS011;21525;41.240;16.500;2023-03-13T15:23:20;2.15;;;1.30;;
35418;SDS011;21525;41.240;16.500;2023-03-13T15:25:46;4.07;;;1.50;;
35418;SDS011;21525;41.240;16.500;2023-03-13T15:28:20;1.83;;;1.40;;
35418;SDS011;21525;41.240;16.500;2023-03-13T15:30:48;6.32;;;1.52;;
35418;SDS011;21525;41.240;16.500;2023-03-13T15:33:19;3.78;;;1.73;;
35418;SDS011;21525;41.240;16.500;2023-03-13T15:35:48;3.53;;;1.48;;
35418;SDS011;21525;41.240;16.500;2023-03-13T15:38:26;4.40;;;1.45;;
35418;SDS011;21525;41.240;16.500;2023-03-13T15:40:52;3.53;;;1.40;;
35418;SDS011;21525;41.240;16.500;2023-03-13T15:43:19;4.15;;;1.25;;
35418;SDS011;21525;41.240;16.500;2023-03-13T15:45:46;3.83;;;1.40;;
35418;SDS011;21525;41.240;16.500;2023-03-13T15:48:24;2.28;;;1.27;;
35418;SDS011;21525;41.240;16.500;2023-03-13T15:50:56;5.22;;;1.58;;
35418;SDS011;21525;41.240;16.500;2023-03-13T15:53:25;3.40;;;1.85;;
35418;SDS011;21525;41.240;16.500;2023-03-13T15:56:00;3.33;;;1.30;;
35418;SDS011;21525;41.240;16.500;2023-03-13T15:58:27;4.45;;;1.55;;
35418;SDS011;21525;41.240;16.500;2023-03-13T16:00:54;3.22;;;1.70;;
35418;SDS011;21525;41.240;16.500;2023-03-13T16:03:22;5.55;;;1.50;;
35418;SDS011;21525;41.240;16.500;2023-03-13T16:05:50;5.97;;;1.30;;
35418;SDS011;21525;41.240;16.500;2023-03-13T16:08:18;5.13;;;1.95;;
35418;SDS011;21525;41.240;16.500;2023-03-13T16:10:45;7.40;;;1.37;;
35418;SDS011;21525;41.240;16.500;2023-03-13T16:13:11;7.75;;;1.95;;
35418;SDS011;21525;41.240;16.500;2023-03-13T16:15:38;4.20;;;1.70;;
35418;SDS011;21525;41.240;16.500;2023-03-13T16:18:04;8.85;;;3.53;;
35418;SDS011;21525;41.240;16.500;2023-03-13T16:20:31;4.88;;;1.48;;
35418;SDS011;21525;41.240;16.500;2023-03-13T16:22:59;7.70;;;1.60;;
35418;SDS011;21525;41.240;16.500;2023-03-13T16:25:29;8.40;;;1.48;;
35418;SDS011;21525;41.240;16.500;2023-03-13T16:27:56;3.53;;;1.07;;
35418;SDS011;21525;41.240;16.500;2023-03-13T16:30:30;7.15;;;1.85;;
35418;SDS011;21525;41.240;16.500;2023-03-13T16:32:57;3.55;;;1.23;;
35418;SDS011;21525;41.240;16.500;2023-03-13T16:35:24;5.00;;;1.45;;
35418;SDS011;21525;41.240;16.500;2023-03-13T16:37:54;10.70;;;1.85;;
35418;SDS011;21525;41.240;16.500;2023-03-13T16:40:23;6.40;;;1.65;;
35418;SDS011;21525;41.240;16.500;2023-03-13T16:42:50;4.35;;;1.80;;
35418;SDS011;21525;41.240;16.500;2023-03-13T16:45:16;8.93;;;1.83;;
35418;SDS011;21525;41.240;16.500;2023-03-13T16:47:43;6.63;;;1.90;;
35418;SDS011;21525;41.240;16.500;2023-03-13T16:50:24;8.10;;;2.97;;
35418;SDS011;21525;41.240;16.500;2023-03-13T16:52:53;11.48;;;2.88;;
35418;SDS011;21525;41.240;16.500;2023-03-13T16:55:20;15.32;;;3.70;;
35418;SDS011;21525;41.240;16.500;2023-03-13T16:57:58;11.32;;;5.68;;
35418;SDS011;21525;41.240;16.500;2023-03-13T17:00:25;13.85;;;5.80;;
35418;SDS011;21525;41.240;16.500;2023-03-13T17:02:52;13.32;;;6.90;;
35418;SDS011;21525;41.240;16.500;2023-03-13T17:05:18;13.95;;;6.30;;
35418;SDS011;21525;41.240;16.500;2023-03-13T17:07:45;13.70;;;7.10;;
35418;SDS011;21525;41.240;16.500;2023-03-13T17:12:50;16.85;;;6.05;;
35418;SDS011;21525;41.240;16.500;2023-03-13T17:15:16;8.23;;;4.55;;
35418;SDS011;21525;41.240;16.500;2023-03-13T17:17:44;10.07;;;4.30;;
35418;SDS011;21525;41.240;16.500;2023-03-13T17:20:20;10.02;;;4.18;;
35418;SDS011;21525;41.240;16.500;2023-03-13T17:22:50;8.88;;;4.90;;
35418;SDS011;21525;41.240;16.500;2023-03-13T17:25:16;11.95;;;5.38;;
35418;SDS011;21525;41.240;16.500;2023-03-13T17:27:43;15.18;;;6.13;;
35418;SDS011;21525;41.240;16.500;2023-03-13T17:32:42;13.60;;;8.10;;
35418;SDS011;21525;41.240;16.500;2023-03-13T17:35:08;14.18;;;8.02;;
35418;SDS011;21525;41.240;16.500;2023-03-13T17:37:34;14.55;;;7.80;;
35418;SDS011;21525;41.240;16.500;2023-03-13T17:40:01;16.85;;;8.35;;
35418;SDS011;21525;41.240;16.500;2023-03-13T17:42:26;17.10;;;9.15;;
35418;SDS011;21525;41.240;16.500;2023-03-13T17:44:52;17.15;;;9.65;;
35418;SDS011;21525;41.240;16.500;2023-03-13T17:47:20;19.80;;;9.95;;